Bern, Switzerland
Current Conditions -  °F | °C
As of 4:50 PM on Thursday 27 Nov 2014 (Local Time) from LSZB Reporting Station
Scattered Clouds Scattered Clouds  
Wind Chill: 43°   Ceiling: Unl
Heat Index: 46°   Visibility: 4mi
Dew Point: 45°   Wind: 7mph
Humidity: 93%   Direction: 330°NNW
Pressure: 29.74"   Gusts: NA
Location:  46.95°N, 7.44°E
Report Text: LSZB 271550Z 33006KT 7000 SCT007 08/07 Q1007 NOSIG
Loading
Personal Weather Stations






























Interactive Weather Map New forecast layout! Learn more

10-Day Weather Forecast

Advertisements
Track Severe Weather on mobile